Time;durP1;ratioP1;P1;durP2;ratioP2;P2;SDS_P1;SDS_P2;PMS_P1;PMS_P2;Temp;Humidity;BMP_temperature;BMP_pressure;BME280_temperature;BME280_humidity;BME280_pressure;Samples;Min_cycle;Max_cycle;Signal;HPM_P1;HPM_P2
2023/11/07 00:00:22;;;;;;;1.10;1.00;;;22.20;38.40;;;;;;6211203;23;20208;-35
2023/11/07 00:02:53;;;;;;;2.17;0.90;;;22.20;38.50;;;;;;6212293;23;20181;-34
2023/11/07 00:05:19;;;;;;;1.45;1.00;;;22.20;38.50;;;;;;6212349;23;20178;-34
2023/11/07 00:07:45;;;;;;;1.17;0.90;;;22.20;38.50;;;;;;6213519;23;20272;-34
2023/11/07 00:10:12;;;;;;;1.08;0.98;;;22.20;38.60;;;;;;6214330;23;20213;-33
2023/11/07 00:12:38;;;;;;;1.15;0.73;;;22.20;38.60;;;;;;6213388;23;20533;-34
2023/11/07 00:15:05;;;;;;;1.63;1.05;;;22.20;38.60;;;;;;6214754;23;20182;-34
2023/11/07 00:17:31;;;;;;;1.65;0.80;;;22.20;38.60;;;;;;6212471;23;20272;-34
2023/11/07 00:19:58;;;;;;;1.10;0.90;;;22.20;38.60;;;;;;6212170;23;20260;-34
2023/11/07 00:22:24;;;;;;;2.58;1.33;;;22.20;38.60;;;;;;6210594;23;20936;-34
2023/11/07 00:24:53;;;;;;;2.45;0.95;;;22.20;38.70;;;;;;6213878;23;20240;-34
2023/11/07 00:27:19;;;;;;;2.45;0.98;;;22.20;38.70;;;;;;6214050;23;20674;-34
2023/11/07 00:29:46;;;;;;;1.52;1.08;;;22.20;38.70;;;;;;6214121;23;20197;-35
2023/11/07 00:32:12;;;;;;;1.88;0.98;;;22.20;38.70;;;;;;6212958;23;20273;-35
2023/11/07 00:34:39;;;;;;;2.03;0.90;;;22.20;38.70;;;;;;6214674;23;20284;-34
2023/11/07 00:37:06;;;;;;;1.13;0.98;;;22.20;38.70;;;;;;6214126;23;20225;-34
2023/11/07 00:39:32;;;;;;;0.80;0.80;;;22.20;38.80;;;;;;6211067;23;20205;-34
2023/11/07 00:41:59;;;;;;;2.13;0.90;;;22.20;38.80;;;;;;6213505;23;20268;-34
2023/11/07 00:44:25;;;;;;;1.15;1.00;;;22.20;38.80;;;;;;6213672;23;20256;-34
2023/11/07 00:46:52;;;;;;;2.28;0.90;;;22.20;38.80;;;;;;6214036;23;20310;-34
2023/11/07 00:49:18;;;;;;;1.52;0.85;;;22.20;38.80;;;;;;6212603;23;20257;-33
2023/11/07 00:51:45;;;;;;;1.27;0.77;;;22.20;38.80;;;;;;6213812;23;20232;-33
2023/11/07 00:54:13;;;;;;;0.90;0.90;;;22.10;38.70;;;;;;6213092;23;20201;-34
2023/11/07 00:56:40;;;;;;;1.73;0.90;;;22.10;39.40;;;;;;6213892;23;20204;-34
2023/11/07 00:59:07;;;;;;;2.05;0.98;;;22.20;38.80;;;;;;6210635;23;20819;-34
2023/11/07 01:01:33;;;;;;;1.83;1.00;;;22.20;38.80;;;;;;6211932;23;20186;-34
2023/11/07 01:03:59;;;;;;;1.60;0.90;;;22.20;38.80;;;;;;6214647;23;20532;-33
2023/11/07 01:06:26;;;;;;;2.13;0.98;;;22.20;38.80;;;;;;6213856;23;20607;-34
2023/11/07 01:08:52;;;;;;;0.90;0.80;;;22.20;38.80;;;;;;6213469;23;20548;-34
2023/11/07 01:11:19;;;;;;;1.33;1.17;;;22.20;38.90;;;;;;6213628;23;20252;-34
2023/11/07 01:13:46;;;;;;;1.50;0.70;;;22.20;38.90;;;;;;6213916;23;20205;-34
2023/11/07 01:16:12;;;;;;;2.63;1.00;;;22.20;38.90;;;;;;6211288;23;20269;-34
2023/11/07 01:18:38;;;;;;;0.85;0.70;;;22.20;38.90;;;;;;6211250;23;20285;-34
2023/11/07 01:21:05;;;;;;;1.50;0.80;;;22.20;38.90;;;;;;6213514;23;20549;-34
2023/11/07 01:23:31;;;;;;;0.80;0.80;;;22.20;38.90;;;;;;6214196;23;20556;-34
2023/11/07 01:25:58;;;;;;;2.08;0.85;;;22.20;38.90;;;;;;6214575;23;20201;-34
2023/11/07 01:28:25;;;;;;;1.30;0.80;;;22.20;38.90;;;;;;6212952;23;20277;-34
2023/11/07 01:30:51;;;;;;;1.13;0.80;;;22.20;39.00;;;;;;6213255;23;20185;-34
2023/11/07 01:33:18;;;;;;;1.65;0.90;;;22.10;38.90;;;;;;6213967;23;20284;-34
2023/11/07 01:35:44;;;;;;;2.72;1.30;;;22.20;38.90;;;;;;6211541;23;20181;-33
2023/11/07 01:38:11;;;;;;;0.98;0.98;;;22.20;39.00;;;;;;6212135;23;20277;-34
2023/11/07 01:40:37;;;;;;;1.15;0.80;;;22.20;39.00;;;;;;6212951;23;20261;-34
2023/11/07 01:43:04;;;;;;;1.17;0.70;;;22.20;39.00;;;;;;6213781;23;20264;-34
2023/11/07 01:45:30;;;;;;;1.67;0.93;;;22.20;39.00;;;;;;6213294;23;20177;-33
2023/11/07 01:47:57;;;;;;;1.80;0.80;;;22.20;38.90;;;;;;6212786;23;20272;-33
2023/11/07 01:50:23;;;;;;;2.47;0.82;;;22.20;39.00;;;;;;6213335;23;20661;-34
2023/11/07 01:52:49;;;;;;;0.70;0.70;;;22.20;39.00;;;;;;6213815;23;20204;-33
2023/11/07 01:55:16;;;;;;;1.15;0.80;;;22.20;39.00;;;;;;6210529;23;20281;-33
2023/11/07 01:57:42;;;;;;;1.27;1.20;;;22.20;39.10;;;;;;6212222;23;20273;-34
2023/11/07 02:00:12;;;;;;;1.48;0.80;;;22.20;39.10;;;;;;6213893;23;20216;-34
2023/11/07 02:02:38;;;;;;;0.80;0.80;;;22.20;39.10;;;;;;6212740;23;20177;-33
2023/11/07 02:05:05;;;;;;;0.88;0.88;;;22.10;39.00;;;;;;6214350;23;20216;-34
2023/11/07 02:07:31;;;;;;;1.25;0.98;;;22.20;39.10;;;;;;6214867;23;20225;-34
2023/11/07 02:09:58;;;;;;;0.70;0.70;;;22.10;39.10;;;;;;6213005;23;20178;-33
2023/11/07 02:12:24;;;;;;;1.35;0.80;;;22.10;39.10;;;;;;6211909;23;20205;-33
2023/11/07 02:14:51;;;;;;;0.95;0.80;;;22.20;39.10;;;;;;6212678;23;20598;-33
2023/11/07 02:17:17;;;;;;;0.80;0.80;;;22.10;39.00;;;;;;6215216;23;20197;-33
2023/11/07 02:19:43;;;;;;;1.10;0.82;;;22.10;39.00;;;;;;6215312;23;20480;-34
2023/11/07 02:22:10;;;;;;;1.73;0.90;;;22.20;39.10;;;;;;6214651;23;20252;-34
2023/11/07 02:24:36;;;;;;;2.13;0.80;;;22.20;39.10;;;;;;6214931;23;20504;-34
2023/11/07 02:27:02;;;;;;;0.90;0.80;;;22.20;39.10;;;;;;6214918;23;20226;-34
2023/11/07 02:29:29;;;;;;;0.90;0.88;;;22.20;39.10;;;;;;6213221;23;20204;-33
2023/11/07 02:31:56;;;;;;;1.92;0.80;;;22.20;39.20;;;;;;6213830;23;20178;-33
2023/11/07 02:34:23;;;;;;;1.30;1.00;;;22.20;39.20;;;;;;6214781;23;20208;-34
2023/11/07 02:36:50;;;;;;;0.82;0.80;;;22.20;39.20;;;;;;6215215;23;20202;-33
2023/11/07 02:39:17;;;;;;;1.90;0.80;;;22.20;39.20;;;;;;6215838;23;20174;-33
2023/11/07 02:41:44;;;;;;;1.35;0.73;;;22.20;39.20;;;;;;6214198;23;20534;-33
2023/11/07 02:44:11;;;;;;;1.73;0.85;;;22.20;39.20;;;;;;6214614;23;20190;-35
2023/11/07 02:46:37;;;;;;;0.70;0.70;;;22.20;39.30;;;;;;6215286;23;20272;-34
2023/11/07 02:49:04;;;;;;;1.60;1.20;;;22.20;39.30;;;;;;6214458;23;20639;-34
2023/11/07 02:51:30;;;;;;;1.35;0.75;;;22.20;39.30;;;;;;6214728;23;20178;-34
2023/11/07 02:53:57;;;;;;;1.55;0.75;;;22.20;39.40;;;;;;6214132;23;20229;-34
2023/11/07 02:56:23;;;;;;;0.75;0.70;;;22.20;39.30;;;;;;6215272;23;20228;-33
2023/11/07 02:58:49;;;;;;;1.23;0.80;;;22.20;39.30;;;;;;6215094;23;20316;-34
2023/11/07 03:01:16;;;;;;;1.58;0.90;;;22.20;39.30;;;;;;6214403;23;20265;-34
2023/11/07 03:03:42;;;;;;;0.80;0.80;;;22.20;39.30;;;;;;6213561;23;20265;-34
2023/11/07 03:06:09;;;;;;;2.55;0.90;;;22.20;39.30;;;;;;6215409;23;20200;-34
2023/11/07 03:08:35;;;;;;;0.98;0.68;;;22.20;39.30;;;;;;6215480;23;20256;-34
2023/11/07 03:11:02;;;;;;;1.90;0.80;;;22.20;39.30;;;;;;6214642;23;20260;-34
2023/11/07 03:13:28;;;;;;;1.05;0.70;;;22.10;39.30;;;;;;6213492;23;20185;-33
2023/11/07 03:15:55;;;;;;;0.70;0.70;;;22.10;40.10;;;;;;6214476;23;20253;-34
2023/11/07 03:18:22;;;;;;;1.65;0.70;;;22.10;39.40;;;;;;6214389;23;20174;-33
2023/11/07 03:20:48;;;;;;;0.70;0.68;;;22.10;39.40;;;;;;6214918;23;20232;-33
2023/11/07 03:23:15;;;;;;;1.15;0.88;;;22.10;39.40;;;;;;6213925;23;20178;-34
2023/11/07 03:25:41;;;;;;;0.85;0.80;;;22.10;39.50;;;;;;6213926;23;20220;-33
2023/11/07 03:28:08;;;;;;;1.83;0.90;;;22.10;39.50;;;;;;6214676;23;20654;-34
2023/11/07 03:30:35;;;;;;;1.35;0.80;;;22.10;39.50;;;;;;6214736;23;20232;-33
2023/11/07 03:33:01;;;;;;;1.60;0.85;;;22.10;39.60;;;;;;6214569;23;20174;-34
2023/11/07 03:35:29;;;;;;;1.65;0.93;;;22.10;39.60;;;;;;6214202;23;20237;-34
2023/11/07 03:37:56;;;;;;;2.17;0.90;;;22.10;39.60;;;;;;6215179;23;20736;-33
2023/11/07 03:40:22;;;;;;;4.07;1.25;;;22.10;39.60;;;;;;6214903;23;20236;-33
2023/11/07 03:42:49;;;;;;;1.15;0.90;;;22.10;39.60;;;;;;6213984;23;20276;-33
2023/11/07 03:45:15;;;;;;;0.85;0.80;;;22.10;39.70;;;;;;6214091;23;20265;-34
2023/11/07 03:47:42;;;;;;;1.02;0.93;;;22.10;39.60;;;;;;6214572;23;20276;-33
2023/11/07 03:50:09;;;;;;;1.77;1.15;;;22.10;39.60;;;;;;6212767;23;20205;-34
2023/11/07 03:52:36;;;;;;;1.05;0.80;;;22.10;39.60;;;;;;6213153;23;20178;-34
2023/11/07 03:55:03;;;;;;;0.93;0.80;;;22.10;39.70;;;;;;6213275;23;20236;-34
2023/11/07 03:57:29;;;;;;;1.90;0.82;;;22.10;39.70;;;;;;6214655;23;20205;-34
2023/11/07 03:59:56;;;;;;;0.60;0.60;;;22.10;39.70;;;;;;6214197;23;20200;-35
2023/11/07 04:02:23;;;;;;;1.08;0.98;;;22.10;39.60;;;;;;6213282;23;20212;-34
2023/11/07 04:04:49;;;;;;;0.98;0.77;;;22.10;39.70;;;;;;6214668;23;20178;-34
2023/11/07 04:07:16;;;;;;;0.75;0.75;;;22.10;39.70;;;;;;6214930;23;20277;-35
2023/11/07 04:09:42;;;;;;;0.70;0.70;;;22.10;39.80;;;;;;6213919;23;20228;-33
2023/11/07 04:12:09;;;;;;;4.03;1.13;;;22.10;39.70;;;;;;6214102;23;20269;-33
2023/11/07 04:14:35;;;;;;;3.30;1.00;;;22.10;39.70;;;;;;6213144;23;20225;-33
2023/11/07 04:17:04;;;;;;;1.38;0.70;;;22.10;39.70;;;;;;6213493;23;20674;-32
2023/11/07 04:19:31;;;;;;;0.90;0.90;;;22.10;39.70;;;;;;6213565;23;20181;-33
2023/11/07 04:21:58;;;;;;;0.80;0.80;;;22.10;39.80;;;;;;6214398;23;20209;-33
2023/11/07 04:24:25;;;;;;;0.95;0.90;;;22.10;39.80;;;;;;6212540;23;20206;-33
2023/11/07 04:26:51;;;;;;;2.33;0.93;;;22.10;39.80;;;;;;6213906;23;20609;-34
2023/11/07 04:29:19;;;;;;;0.90;0.90;;;22.10;39.80;;;;;;6213238;23;20177;-33
2023/11/07 04:31:46;;;;;;;0.70;0.70;;;22.10;39.80;;;;;;6213649;23;20213;-34
2023/11/07 04:34:12;;;;;;;2.15;0.90;;;22.10;39.80;;;;;;6214257;23;20281;-34
2023/11/07 04:36:39;;;;;;;1.33;0.85;;;22.10;39.90;;;;;;6213865;23;20690;-33
2023/11/07 04:39:06;;;;;;;1.00;0.80;;;22.10;39.90;;;;;;6210761;23;20265;-34
2023/11/07 04:41:33;;;;;;;2.50;0.80;;;22.10;39.90;;;;;;6214012;23;20253;-33
2023/11/07 04:44:00;;;;;;;0.63;0.63;;;22.10;39.90;;;;;;6211682;23;20650;-34
2023/11/07 04:46:27;;;;;;;2.08;0.70;;;22.10;39.90;;;;;;6213537;23;20275;-34
2023/11/07 04:48:54;;;;;;;0.77;0.77;;;22.10;39.90;;;;;;6214398;23;20228;-33
2023/11/07 04:51:22;;;;;;;2.15;0.90;;;22.10;39.90;;;;;;6213568;23;20185;-34
2023/11/07 04:53:49;;;;;;;1.38;0.80;;;22.10;39.90;;;;;;6213353;23;20487;-33
2023/11/07 04:56:15;;;;;;;0.95;0.80;;;22.10;39.90;;;;;;6213300;23;20233;-33
2023/11/07 04:58:42;;;;;;;1.25;0.93;;;22.10;39.90;;;;;;6210978;23;20177;-33
2023/11/07 05:01:09;;;;;;;2.38;0.90;;;22.10;39.90;;;;;;6213102;23;20265;-33
2023/11/07 05:03:36;;;;;;;0.80;0.80;;;22.10;39.90;;;;;;6213661;23;20209;-33
2023/11/07 05:06:03;;;;;;;1.35;0.80;;;22.10;39.90;;;;;;6212775;23;20512;-33
2023/11/07 05:08:30;;;;;;;1.40;0.93;;;22.10;39.90;;;;;;6214066;23;20185;-33
2023/11/07 05:10:56;;;;;;;0.93;0.80;;;22.10;40.00;;;;;;6213265;23;20665;-33
2023/11/07 05:13:23;;;;;;;1.42;0.80;;;22.10;40.00;;;;;;6213757;23;20698;-33
2023/11/07 05:15:49;;;;;;;0.70;0.70;;;22.10;40.00;;;;;;6212756;23;20209;-33
2023/11/07 05:18:16;;;;;;;0.98;0.88;;;22.10;40.00;;;;;;6210413;23;20209;-33
2023/11/07 05:20:43;;;;;;;0.90;0.70;;;22.10;40.00;;;;;;6213034;23;20209;-34
2023/11/07 05:23:09;;;;;;;1.20;0.80;;;22.10;40.00;;;;;;6213220;23;20184;-33
2023/11/07 05:25:36;;;;;;;1.50;0.80;;;22.10;40.70;;;;;;6212148;23;20666;-34
2023/11/07 05:28:04;;;;;;;2.22;1.38;;;22.10;40.00;;;;;;6214266;23;20181;-34
2023/11/07 05:30:30;;;;;;;0.85;0.70;;;22.10;40.00;;;;;;6212457;23;20212;-33
2023/11/07 05:32:57;;;;;;;2.35;0.80;;;22.10;40.00;;;;;;6213745;23;20185;-33
2023/11/07 05:35:23;;;;;;;1.30;0.73;;;22.10;40.00;;;;;;6212200;23;20285;-33
2023/11/07 05:37:52;;;;;;;0.80;0.80;;;22.10;40.70;;;;;;6210047;23;20261;-34
2023/11/07 05:40:19;;;;;;;0.70;0.68;;;22.10;40.00;;;;;;6213744;23;20185;-40
2023/11/07 05:42:45;;;;;;;0.80;0.80;;;22.10;40.30;;;;;;6211976;23;20236;-40
2023/11/07 05:45:12;;;;;;;1.30;0.82;;;22.10;40.10;;;;;;6212518;23;20257;-40
2023/11/07 05:47:40;;;;;;;1.10;0.80;;;22.10;40.00;;;;;;6213209;23;20197;-40
2023/11/07 05:50:07;;;;;;;0.70;0.70;;;22.10;40.10;;;;;;6213580;23;20174;-40
2023/11/07 05:52:33;;;;;;;0.75;0.75;;;22.10;40.10;;;;;;6212561;23;20256;-40
2023/11/07 05:55:01;;;;;;;0.80;0.80;;;22.10;40.10;;;;;;6212735;23;20284;-40
2023/11/07 05:57:28;;;;;;;0.68;0.68;;;22.10;40.10;;;;;;6209532;23;20186;-40
2023/11/07 05:59:54;;;;;;;1.60;0.80;;;22.10;40.10;;;;;;6211631;23;20185;-40
2023/11/07 06:02:21;;;;;;;0.90;0.90;;;22.10;40.10;;;;;;6208074;23;20186;-40
2023/11/07 06:04:47;;;;;;;2.70;0.85;;;22.10;40.10;;;;;;6212303;23;20260;-40
2023/11/07 06:07:14;;;;;;;0.77;0.60;;;22.00;40.00;;;;;;6213532;23;20280;-40
2023/11/07 06:09:40;;;;;;;1.38;0.70;;;22.10;40.10;;;;;;6213486;23;20563;-40
2023/11/07 06:12:07;;;;;;;2.45;0.93;;;22.10;40.10;;;;;;6212437;23;20177;-40
2023/11/07 06:14:33;;;;;;;1.17;0.70;;;22.10;40.10;;;;;;6213122;23;20233;-40
2023/11/07 06:17:00;;;;;;;1.15;0.85;;;22.10;40.10;;;;;;6212674;23;20281;-40
2023/11/07 06:19:27;;;;;;;1.83;1.00;;;22.10;40.10;;;;;;6212646;23;20261;-40
2023/11/07 06:21:53;;;;;;;0.93;0.77;;;22.10;40.00;;;;;;6209497;23;20243;-41
2023/11/07 06:24:20;;;;;;;1.15;0.80;;;22.10;40.10;;;;;;6210430;23;20722;-40
2023/11/07 06:26:47;;;;;;;2.20;0.93;;;22.10;40.10;;;;;;6213787;23;20260;-40
2023/11/07 06:29:13;;;;;;;1.02;0.73;;;22.10;40.10;;;;;;6213423;23;20235;-40
2023/11/07 06:31:39;;;;;;;1.90;1.00;;;22.10;40.00;;;;;;6212779;23;20174;-40
2023/11/07 06:34:06;;;;;;;1.02;0.70;;;22.10;40.10;;;;;;6211546;23;20213;-40
2023/11/07 06:36:33;;;;;;;1.30;0.82;;;22.10;40.10;;;;;;6213696;23;20206;-40
2023/11/07 06:38:59;;;;;;;2.13;0.80;;;22.10;40.10;;;;;;6210516;23;20253;-40
2023/11/07 06:41:26;;;;;;;2.47;0.90;;;22.10;40.10;;;;;;6212431;23;20185;-41
2023/11/07 06:43:52;;;;;;;1.23;0.90;;;22.10;40.10;;;;;;6209490;23;20265;-40
2023/11/07 06:46:19;;;;;;;0.85;0.80;;;22.10;40.10;;;;;;6211311;23;20202;-40
2023/11/07 06:48:46;;;;;;;2.55;0.70;;;22.10;40.10;;;;;;6211566;23;20256;-40
2023/11/07 06:51:12;;;;;;;1.25;0.77;;;22.10;40.10;;;;;;6211131;23;20232;-40
2023/11/07 06:53:39;;;;;;;0.60;0.60;;;22.10;40.10;;;;;;6210341;23;20224;-40
2023/11/07 06:56:06;;;;;;;0.70;0.70;;;22.10;40.10;;;;;;6212331;23;20280;-40
2023/11/07 06:58:32;;;;;;;1.13;1.05;;;22.10;40.20;;;;;;6209255;23;20475;-40
2023/11/07 07:00:58;;;;;;;1.92;1.10;;;22.10;40.20;;;;;;6207846;23;20182;-40
2023/11/07 07:03:26;;;;;;;3.30;0.90;;;22.10;40.40;;;;;;6211020;23;20217;-41
2023/11/07 07:05:53;;;;;;;2.05;0.70;;;22.10;40.50;;;;;;6212742;23;20683;-40
2023/11/07 07:08:19;;;;;;;1.13;0.90;;;22.10;40.50;;;;;;6210684;23;20185;-40
2023/11/07 07:10:46;;;;;;;2.35;0.95;;;22.10;40.60;;;;;;6210937;23;20735;-40
2023/11/07 07:13:12;;;;;;;0.90;0.80;;;22.10;40.50;;;;;;6212801;23;20215;-40
2023/11/07 07:15:41;;;;;;;2.50;1.10;;;22.10;40.50;;;;;;6212915;23;20207;-40
2023/11/07 07:18:07;;;;;;;4.88;0.95;;;22.10;40.50;;;;;;6212742;23;20181;-40
2023/11/07 07:20:36;;;;;;;3.35;0.88;;;22.10;40.60;;;;;;6212495;23;20624;-42
2023/11/07 07:23:05;;;;;;;1.98;0.85;;;22.10;40.70;;;;;;6212616;23;20235;-40
2023/11/07 07:25:32;;;;;;;11.23;1.90;;;22.10;40.30;;;;;;6208921;23;20217;-39
2023/11/07 07:27:59;;;;;;;3.35;1.40;;;22.10;39.70;;;;;;6211489;23;20553;-39
2023/11/07 07:30:26;;;;;;;4.05;1.30;;;22.00;39.50;;;;;;6211963;23;20945;-40
2023/11/07 07:32:52;;;;;;;3.92;1.23;;;21.90;38.70;;;;;;6209767;23;20181;-40
2023/11/07 07:35:20;;;;;;;3.58;1.60;;;21.10;33.50;;;;;;6210651;23;20241;-40
2023/11/07 07:37:51;;;;;;;4.05;1.40;;;20.70;35.20;;;;;;6212474;23;20173;-40
2023/11/07 07:40:17;;;;;;;2.33;1.50;;;21.00;34.80;;;;;;6213165;23;20197;-40
2023/11/07 07:42:45;;;;;;;4.35;1.30;;;21.30;35.70;;;;;;6150809;23;1200249;-40
2023/11/07 07:45:11;;;;;;;1.95;1.40;;;21.50;36.10;;;;;;6213276;23;20202;-39
2023/11/07 07:47:38;;;;;;;1.90;1.35;;;21.70;36.90;;;;;;6212840;23;20254;-40
2023/11/07 07:50:09;;;;;;;2.40;1.38;;;21.70;37.40;;;;;;6214829;23;20253;-39
2023/11/07 07:52:37;;;;;;;2.88;1.27;;;21.80;37.80;;;;;;6210224;23;20170;-39
2023/11/07 07:55:04;;;;;;;2.75;1.88;;;21.80;38.00;;;;;;6213191;23;20264;-40
2023/11/07 07:57:31;;;;;;;2.22;1.23;;;21.90;38.30;;;;;;6211899;23;20174;-39
2023/11/07 07:59:58;;;;;;;2.70;1.00;;;21.90;38.40;;;;;;6214319;23;20257;-40
2023/11/07 08:02:24;;;;;;;1.88;1.15;;;21.90;38.50;;;;;;6211558;23;20180;-38
2023/11/07 08:04:51;;;;;;;1.77;1.10;;;21.90;38.70;;;;;;6205185;23;20288;-37
2023/11/07 08:07:17;;;;;;;2.03;1.10;;;21.90;38.70;;;;;;6211685;23;20256;-37
2023/11/07 08:09:44;;;;;;;1.52;1.42;;;22.00;38.80;;;;;;6212259;23;20249;-36
2023/11/07 08:12:12;;;;;;;1.23;1.13;;;22.00;39.10;;;;;;6208042;23;20178;-41
2023/11/07 08:14:38;;;;;;;4.22;1.50;;;22.00;39.10;;;;;;6212501;23;20228;-42
2023/11/07 08:17:04;;;;;;;1.77;1.20;;;22.10;39.20;;;;;;6210488;23;20208;-40
2023/11/07 08:19:31;;;;;;;1.23;1.13;;;22.00;39.30;;;;;;6214150;23;20174;-41
2023/11/07 08:21:57;;;;;;;4.38;1.20;;;22.00;39.40;;;;;;6213039;23;20260;-40
2023/11/07 08:24:24;;;;;;;1.67;1.20;;;22.00;39.40;;;;;;6211650;23;20280;-40
2023/11/07 08:26:50;;;;;;;1.30;1.20;;;22.00;39.60;;;;;;6211649;23;20269;-40
2023/11/07 08:29:17;;;;;;;1.27;1.17;;;22.00;39.60;;;;;;6211033;23;20577;-40
2023/11/07 08:31:43;;;;;;;3.42;1.67;;;22.00;39.60;;;;;;6211364;23;20180;-40
2023/11/07 08:34:10;;;;;;;1.77;1.27;;;22.00;39.90;;;;;;6214512;23;20178;-40
2023/11/07 08:36:37;;;;;;;2.17;1.20;;;22.00;39.90;;;;;;6214607;23;20532;-40
2023/11/07 08:39:03;;;;;;;1.52;1.20;;;22.00;40.00;;;;;;6214250;23;20557;-40
2023/11/07 08:41:30;;;;;;;2.00;1.30;;;22.00;40.00;;;;;;6213550;23;20178;-40
2023/11/07 08:43:56;;;;;;;1.92;1.58;;;22.00;40.00;;;;;;6214321;23;20257;-40
2023/11/07 08:46:23;;;;;;;2.85;1.40;;;22.00;40.00;;;;;;6211586;23;20709;-40
2023/11/07 08:48:50;;;;;;;3.15;1.05;;;22.00;40.00;;;;;;6213088;23;20188;-40
2023/11/07 08:51:17;;;;;;;1.88;1.30;;;22.00;40.00;;;;;;6213641;23;20178;-40
2023/11/07 08:53:43;;;;;;;2.45;1.30;;;22.00;40.00;;;;;;6214249;23;20317;-40
2023/11/07 08:56:12;;;;;;;2.35;1.25;;;22.00;40.00;;;;;;6214526;23;20209;-40
2023/11/07 08:58:39;;;;;;;3.58;1.48;;;22.00;40.00;;;;;;6214136;23;20182;-40
2023/11/07 09:01:05;;;;;;;2.58;1.48;;;22.00;40.00;;;;;;6213982;23;20174;-40
2023/11/07 09:03:33;;;;;;;3.00;1.38;;;22.00;40.00;;;;;;6213754;23;20493;-38
2023/11/07 09:06:00;;;;;;;1.33;1.23;;;22.00;40.00;;;;;;6212588;23;20202;-38
2023/11/07 09:08:27;;;;;;;2.63;1.40;;;22.00;40.00;;;;;;6212115;23;20179;-38
2023/11/07 09:10:54;;;;;;;2.55;1.38;;;22.00;39.90;;;;;;6212628;23;20201;-37
2023/11/07 09:13:21;;;;;;;3.72;1.70;;;22.00;39.90;;;;;;6214430;23;20181;-40
2023/11/07 09:15:48;;;;;;;1.40;1.30;;;22.00;40.00;;;;;;6214172;23;20225;-40
2023/11/07 09:18:14;;;;;;;2.67;1.35;;;22.00;40.00;;;;;;6214130;23;20666;-38
2023/11/07 09:20:42;;;;;;;2.10;1.30;;;22.00;40.00;;;;;;6213421;23;20718;-40
2023/11/07 09:23:09;;;;;;;2.45;1.33;;;22.00;40.00;;;;;;6213896;23;20689;-40
2023/11/07 09:25:36;;;;;;;2.45;1.35;;;22.00;40.00;;;;;;6208028;23;20194;-40
2023/11/07 09:28:03;;;;;;;1.30;1.20;;;22.00;40.00;;;;;;6212831;23;20178;-40
2023/11/07 09:30:30;;;;;;;1.63;1.30;;;22.00;40.70;;;;;;6214187;23;20257;-40
2023/11/07 09:32:56;;;;;;;2.03;1.33;;;22.00;40.00;;;;;;6213761;23;20252;-40
2023/11/07 09:35:23;;;;;;;2.90;1.40;;;22.00;40.00;;;;;;6213658;23;20201;-40
2023/11/07 09:37:50;;;;;;;3.00;1.30;;;22.00;40.00;;;;;;6214068;23;20557;-39
2023/11/07 09:40:19;;;;;;;4.53;1.77;;;22.00;40.10;;;;;;6214248;23;20205;-40
2023/11/07 09:42:46;;;;;;;2.10;1.35;;;22.00;40.10;;;;;;6210454;23;20268;-40
2023/11/07 09:45:11;;;;;;;1.77;1.58;;;22.00;40.10;;;;;;6213614;23;20732;-40
2023/11/07 09:47:38;;;;;;;3.95;1.63;;;22.00;40.10;;;;;;6213033;23;20178;-40
2023/11/07 09:50:07;;;;;;;3.55;1.67;;;22.00;40.20;;;;;;6214224;23;20178;-40
2023/11/07 09:52:34;;;;;;;3.50;1.67;;;22.00;40.10;;;;;;6213581;23;20185;-40
2023/11/07 09:55:00;;;;;;;6.25;2.10;;;22.00;40.20;;;;;;6214102;23;20233;-41
2023/11/07 09:57:27;;;;;;;4.60;2.08;;;22.00;40.30;;;;;;6214055;23;20252;-39
2023/11/07 09:59:53;;;;;;;3.83;1.80;;;22.00;40.40;;;;;;6213622;23;20561;-40
2023/11/07 10:02:21;;;;;;;5.18;2.47;;;22.00;40.30;;;;;;6210814;23;20231;-40
2023/11/07 10:04:47;;;;;;;3.63;2.05;;;22.00;40.40;;;;;;6212498;23;20197;-39
2023/11/07 10:07:14;;;;;;;4.93;2.20;;;22.10;40.50;;;;;;6213681;23;20185;-39
2023/11/07 10:09:40;;;;;;;4.32;2.08;;;22.00;40.40;;;;;;6213491;23;20182;-40
2023/11/07 10:12:07;;;;;;;5.25;2.00;;;22.00;40.40;;;;;;6213147;23;20173;-39
2023/11/07 10:14:33;;;;;;;3.35;2.28;;;22.10;40.50;;;;;;6213828;23;20200;-38
2023/11/07 10:17:03;;;;;;;3.97;2.22;;;22.00;40.40;;;;;;6213818;23;20288;-38
2023/11/07 10:19:30;;;;;;;3.08;1.60;;;22.10;40.50;;;;;;6210958;23;20182;-39
2023/11/07 10:21:57;;;;;;;3.38;1.90;;;22.00;40.50;;;;;;6212221;23;20508;-39
2023/11/07 10:24:23;;;;;;;3.38;1.67;;;22.00;40.50;;;;;;6214002;23;20587;-40
2023/11/07 10:26:51;;;;;;;6.25;1.95;;;22.00;40.50;;;;;;6214704;23;20272;-39
2023/11/07 10:29:25;;;;;;;3.17;1.90;;;22.00;40.50;;;;;;6215865;23;20201;-39
2023/11/07 10:31:52;;;;;;;4.05;2.00;;;22.00;40.50;;;;;;6215103;23;20236;-40
2023/11/07 10:34:19;;;;;;;4.05;1.85;;;22.00;40.50;;;;;;6215715;23;20225;-39
2023/11/07 10:36:46;;;;;;;3.60;1.85;;;22.00;40.50;;;;;;6214478;23;20559;-40
2023/11/07 10:39:13;;;;;;;4.75;1.73;;;22.00;40.50;;;;;;6214371;23;20213;-40
2023/11/07 10:41:39;;;;;;;3.35;1.70;;;22.00;40.60;;;;;;6214718;23;20189;-42
2023/11/07 10:44:06;;;;;;;4.72;1.77;;;22.00;40.60;;;;;;6214720;23;20512;-40
2023/11/07 10:46:31;;;;;;;3.20;1.80;;;22.00;40.60;;;;;;6215564;23;20178;-39
2023/11/07 10:49:05;;;;;;;3.35;1.52;;;22.00;40.60;;;;;;6215830;23;20180;-39
2023/11/07 10:51:32;;;;;;;3.63;2.15;;;22.00;40.60;;;;;;6214758;23;20197;-40
2023/11/07 10:53:59;;;;;;;3.00;1.70;;;22.00;40.60;;;;;;6214912;23;20743;-40
2023/11/07 10:56:26;;;;;;;3.33;1.73;;;22.00;40.60;;;;;;6215500;23;20229;-38
2023/11/07 10:58:52;;;;;;;2.55;1.50;;;22.00;40.50;;;;;;6212904;23;20178;-40
2023/11/07 11:01:19;;;;;;;2.80;1.73;;;22.00;40.50;;;;;;6213644;23;20174;-39
2023/11/07 11:03:45;;;;;;;2.20;1.60;;;22.00;40.50;;;;;;6215472;23;20247;-39
2023/11/07 11:06:14;;;;;;;3.50;1.90;;;22.00;40.50;;;;;;6214874;23;20178;-40
2023/11/07 11:08:40;;;;;;;2.03;1.70;;;22.00;40.40;;;;;;6215019;23;20301;-38
2023/11/07 11:11:07;;;;;;;2.55;1.50;;;22.00;40.40;;;;;;6214640;23;20706;-40
2023/11/07 11:13:35;;;;;;;3.10;1.65;;;22.00;40.50;;;;;;6214674;23;20178;-40
2023/11/07 11:16:01;;;;;;;3.28;1.50;;;22.00;40.40;;;;;;6212364;23;20198;-38
2023/11/07 11:18:28;;;;;;;2.45;1.60;;;22.00;40.40;;;;;;6213403;23;20260;-38
2023/11/07 11:20:54;;;;;;;2.10;1.40;;;22.00;40.50;;;;;;6211604;23;20627;-38
2023/11/07 11:23:21;;;;;;;2.13;1.30;;;22.00;40.40;;;;;;6213379;23;20256;-40
2023/11/07 11:25:47;;;;;;;3.22;1.67;;;22.00;40.50;;;;;;6215516;23;20567;-38
2023/11/07 11:28:14;;;;;;;3.40;1.83;;;22.00;40.40;;;;;;6215265;23;20253;-39
2023/11/07 11:30:40;;;;;;;3.03;2.03;;;22.00;40.50;;;;;;6215198;23;20257;-40
2023/11/07 11:33:07;;;;;;;3.40;1.40;;;22.00;40.50;;;;;;6215021;23;20202;-40
2023/11/07 11:35:38;;;;;;;1.98;1.60;;;22.00;40.50;;;;;;6215229;23;20193;-38
2023/11/07 11:38:09;;;;;;;3.58;1.90;;;22.00;40.50;;;;;;6212799;23;20185;-40
2023/11/07 11:40:35;;;;;;;2.83;1.50;;;22.00;40.50;;;;;;6211010;23;20201;-40
2023/11/07 11:43:01;;;;;;;2.90;1.50;;;22.00;40.50;;;;;;6213273;23;20269;-40
2023/11/07 11:45:28;;;;;;;3.47;1.40;;;22.00;40.10;;;;;;6212029;23;20277;-41
2023/11/07 11:47:54;;;;;;;2.25;1.45;;;21.90;38.90;;;;;;6211618;23;20658;-39
2023/11/07 11:50:21;;;;;;;2.92;1.27;;;21.80;37.60;;;;;;6207573;23;20693;-39
2023/11/07 11:52:47;;;;;;;4.18;1.63;;;21.70;36.50;;;;;;6208096;23;20209;-39
2023/11/07 11:55:15;;;;;;;2.53;1.50;;;21.70;36.10;;;;;;6210994;23;20277;-42
2023/11/07 11:57:42;;;;;;;1.55;1.20;;;21.80;36.20;;;;;;6210484;23;20209;-42
2023/11/07 12:00:10;;;;;;;3.08;1.20;;;21.90;37.00;;;;;;6213538;23;20180;-42
2023/11/07 12:02:39;;;;;;;1.85;1.10;;;21.90;37.80;;;;;;6212848;23;20181;-42
2023/11/07 12:05:05;;;;;;;2.58;1.25;;;22.00;37.90;;;;;;6208071;23;20233;-42
2023/11/07 12:07:31;;;;;;;1.92;1.73;;;22.10;38.30;;;;;;6212869;23;20188;-42
2023/11/07 12:09:59;;;;;;;1.60;1.40;;;22.10;38.30;;;;;;6211582;23;20553;-42
2023/11/07 12:12:25;;;;;;;1.33;1.02;;;22.10;38.50;;;;;;6214343;23;20182;-42
2023/11/07 12:14:51;;;;;;;2.60;1.42;;;22.10;38.40;;;;;;6213130;23;20204;-42
2023/11/07 12:17:18;;;;;;;4.72;1.95;;;22.10;38.40;;;;;;6211937;23;20581;-42
2023/11/07 12:19:44;;;;;;;3.10;1.30;;;22.20;38.50;;;;;;6212909;23;20205;-42
2023/11/07 12:22:11;;;;;;;2.20;1.23;;;22.20;38.50;;;;;;6212479;23;20178;-42
2023/11/07 12:24:38;;;;;;;1.98;1.20;;;22.20;38.40;;;;;;6213773;23;20269;-36
2023/11/07 12:27:04;;;;;;;1.65;1.30;;;22.20;38.30;;;;;;6212116;23;20257;-40
2023/11/07 12:29:31;;;;;;;2.90;1.38;;;22.30;38.30;;;;;;6214058;23;20260;-40
2023/11/07 12:31:57;;;;;;;2.05;1.45;;;22.40;38.20;;;;;;6209930;23;20217;-41
2023/11/07 12:34:24;;;;;;;2.60;1.40;;;22.40;38.30;;;;;;6213032;23;20198;-41
2023/11/07 12:36:50;;;;;;;2.53;1.30;;;22.40;38.40;;;;;;6212994;23;20393;-41
2023/11/07 12:39:18;;;;;;;2.00;1.25;;;22.40;38.50;;;;;;6214839;23;20249;-40
2023/11/07 12:41:44;;;;;;;2.63;1.30;;;22.40;38.60;;;;;;6212521;23;20698;-40